Time;durP1;ratioP1;P1;durP2;ratioP2;P2;SDS_P1;SDS_P2;PMS_P1;PMS_P2;Temp;Humidity;BMP_temperature;BMP_pressure;BME280_temperature;BME280_humidity;BME280_pressure;Samples;Min_cycle;Max_cycle;Signal;HPM_P1;HPM_P2
2024/01/07 00:01:24;;;;;;;15.83;8.70;;;;;;;0.02;68.11;100030.44;5031888;27;96792;-82
2024/01/07 00:03:51;;;;;;;17.47;7.87;;;;;;;0.26;67.20;100047.72;4995705;28;96781;-82
2024/01/07 00:06:16;;;;;;;12.10;7.10;;;;;;;0.21;67.45;100020.19;5015077;27;98220;-82
2024/01/07 00:08:42;;;;;;;13.77;8.23;;;;;;;0.64;66.73;100042.66;5014593;27;101247;-83
2024/01/07 00:11:07;;;;;;;15.57;8.53;;;;;;;0.45;66.15;100054.69;5013000;27;97557;-83
2024/01/07 00:13:33;;;;;;;15.13;8.07;;;;;;;0.38;66.09;100043.47;5035608;27;96760;-83
2024/01/07 00:15:58;;;;;;;12.57;8.30;;;;;;;0.54;66.07;100054.69;5024409;27;98023;-83
2024/01/07 00:18:24;;;;;;;14.77;8.00;;;;;;;0.41;66.62;100058.13;5020139;27;101465;-82
2024/01/07 00:20:50;;;;;;;18.87;9.83;;;;;;;0.27;67.41;100059.81;5014502;27;97316;-83
2024/01/07 00:23:15;;;;;;;14.27;8.23;;;;;;;0.30;68.20;100062.38;5032119;27;96818;-83
2024/01/07 00:25:41;;;;;;;14.53;8.23;;;;;;;0.35;68.10;100063.25;5017285;27;101131;-82
2024/01/07 00:28:06;;;;;;;14.30;8.33;;;;;;;0.28;68.60;100058.94;5004745;27;101402;-83
2024/01/07 00:30:32;;;;;;;14.30;7.57;;;;;;;0.15;68.98;100058.88;5001432;27;96803;-83
2024/01/07 00:32:58;;;;;;;19.27;8.50;;;;;;;0.27;68.95;100063.25;5018380;27;97020;-83
2024/01/07 00:35:23;;;;;;;15.07;8.37;;;;;;;0.18;67.93;100061.47;5016251;27;101398;-83
2024/01/07 00:37:50;;;;;;;18.60;7.73;;;;;;;0.27;68.03;100054.63;5020750;27;101266;-84
2024/01/07 00:40:16;;;;;;;13.13;7.40;;;;;;;0.01;67.40;100051.94;5028028;27;96708;-83
2024/01/07 00:42:41;;;;;;;16.23;8.77;;;;;;;-0.19;68.42;100051.84;5012795;27;97287;-83
2024/01/07 00:45:08;;;;;;;15.47;8.20;;;;;;;-0.27;69.50;100065.53;5017564;27;101327;-83
2024/01/07 00:47:34;;;;;;;14.47;8.37;;;;;;;-0.06;68.90;100063.94;5013516;27;100939;-83
2024/01/07 00:49:59;;;;;;;19.77;8.57;;;;;;;-0.03;68.84;100057.09;5016540;27;96723;-82
2024/01/07 00:52:25;;;;;;;13.90;8.07;;;;;;;0.00;68.19;100033.03;5017294;27;96956;-83
2024/01/07 00:54:50;;;;;;;12.43;7.83;;;;;;;0.10;68.72;100047.69;5017144;28;101304;-83
2024/01/07 00:57:16;;;;;;;12.43;7.87;;;;;;;0.27;68.36;100055.50;4998318;28;97965;-83
2024/01/07 00:59:41;;;;;;;12.83;7.70;;;;;;;0.27;68.62;100063.25;5013564;27;98087;-83
2024/01/07 01:02:07;;;;;;;18.20;8.43;;;;;;;0.33;68.36;100059.81;5010983;27;97279;-83
2024/01/07 01:04:32;;;;;;;17.13;8.30;;;;;;;0.41;68.48;100060.72;5014600;27;97566;-83
2024/01/07 01:06:58;;;;;;;16.33;7.90;;;;;;;0.36;68.71;100070.16;5033898;27;97355;-82
2024/01/07 01:09:24;;;;;;;14.13;8.33;;;;;;;0.04;68.26;100044.22;5033647;27;97227;-83
2024/01/07 01:11:49;;;;;;;16.13;8.53;;;;;;;0.03;68.00;100035.63;5041143;27;96782;-83
2024/01/07 01:14:15;;;;;;;17.03;10.20;;;;;;;0.11;68.20;100076.94;5034586;27;101250;-83
2024/01/07 01:16:42;;;;;;;19.37;10.83;;;;;;;0.06;68.29;100083.78;5014790;28;97891;-82
2024/01/07 01:19:08;;;;;;;15.23;9.10;;;;;;;-0.18;68.00;100051.84;5011950;27;97260;-83
2024/01/07 01:21:35;;;;;;;13.00;7.53;;;;;;;-0.01;68.09;100062.25;5014333;28;96959;-83
2024/01/07 01:24:00;;;;;;;14.73;7.50;;;;;;;-0.06;67.68;100075.16;5016650;27;101356;-83
2024/01/07 01:26:26;;;;;;;14.03;6.90;;;;;;;-0.04;66.80;100070.84;5034427;27;98067;-83
2024/01/07 01:28:52;;;;;;;17.80;8.90;;;;;;;0.19;66.54;100091.59;5020018;27;96812;-83
2024/01/07 01:31:18;;;;;;;13.80;7.77;;;;;;;-0.06;66.44;100093.22;5018163;27;96911;-83
2024/01/07 01:33:43;;;;;;;15.33;8.43;;;;;;;0.12;66.95;100082.13;5017085;27;101507;-82
2024/01/07 01:36:09;;;;;;;16.47;7.87;;;;;;;-0.01;66.05;100090.63;5009973;27;101324;-83
2024/01/07 01:38:34;;;;;;;15.83;8.60;;;;;;;-0.14;66.31;100081.97;5017330;27;96773;-82
2024/01/07 01:41:00;;;;;;;13.67;7.67;;;;;;;-0.22;66.79;100059.56;5017118;27;97377;-83
2024/01/07 01:43:26;;;;;;;16.13;7.80;;;;;;;-0.24;66.48;100068.16;5000684;27;101502;-82
2024/01/07 01:45:56;;;;;;;14.17;7.33;;;;;;;-0.02;66.51;100087.19;5010532;27;101469;-82
2024/01/07 01:48:23;;;;;;;17.87;7.93;;;;;;;-0.27;66.15;100067.28;5016669;27;97302;-83
2024/01/07 01:50:48;;;;;;;16.73;9.77;;;;;;;-0.11;66.36;100089.75;5031879;27;96934;-82
2024/01/07 01:53:15;;;;;;;14.33;7.27;;;;;;;-0.26;66.44;100093.09;5016369;27;101413;-83
2024/01/07 01:55:43;;;;;;;16.10;8.17;;;;;;;-0.10;66.13;100091.44;5029593;27;101182;-83
2024/01/07 01:58:09;;;;;;;13.57;7.80;;;;;;;-0.09;66.17;100093.19;5015467;27;96819;-83
2024/01/07 02:00:35;;;;;;;14.67;7.97;;;;;;;-0.04;66.67;100091.47;4999860;28;97180;-82
2024/01/07 02:03:00;;;;;;;16.53;8.43;;;;;;;-0.16;66.36;100099.16;5017266;27;101104;-82
2024/01/07 02:05:26;;;;;;;15.20;7.97;;;;;;;-0.13;66.24;100095.75;5012268;27;98420;-83
2024/01/07 02:07:52;;;;;;;18.70;9.17;;;;;;;-0.30;67.00;100072.41;4999891;27;96843;-82
2024/01/07 02:10:17;;;;;;;13.90;8.13;;;;;;;-0.29;67.65;100087.91;5034012;27;97249;-83
2024/01/07 02:12:43;;;;;;;19.93;8.63;;;;;;;-0.28;66.56;100065.56;5032965;27;98185;-83
2024/01/07 02:15:09;;;;;;;15.90;8.00;;;;;;;-0.05;66.40;100097.50;5022257;27;101446;-82
2024/01/07 02:17:34;;;;;;;15.10;7.97;;;;;;;-0.20;66.84;100097.44;5012372;27;96831;-82
2024/01/07 02:20:00;;;;;;;18.20;9.17;;;;;;;-0.32;66.36;100097.31;5014504;27;96993;-82
2024/01/07 02:22:25;;;;;;;18.13;8.93;;;;;;;-0.46;67.46;100095.53;5015840;27;100377;-84
2024/01/07 02:24:51;;;;;;;16.77;8.17;;;;;;;-0.41;67.01;100092.13;4996875;27;101262;-84
2024/01/07 02:27:16;;;;;;;26.43;10.20;;;;;;;-0.53;66.92;100080.84;5016649;27;97328;-83
2024/01/07 02:29:42;;;;;;;22.47;8.87;;;;;;;-0.60;67.63;100104.03;5023374;28;97335;-83
2024/01/07 02:32:07;;;;;;;17.60;8.77;;;;;;;-0.48;68.09;100107.53;4996231;27;99544;-83
2024/01/07 02:34:32;;;;;;;15.97;9.47;;;;;;;-0.46;68.14;100099.84;5018653;27;97898;-83
2024/01/07 02:36:58;;;;;;;13.93;8.07;;;;;;;-0.40;67.32;100104.19;5002646;27;97441;-83
2024/01/07 02:39:23;;;;;;;13.27;8.33;;;;;;;-0.35;67.68;100105.94;5009140;27;96965;-83
2024/01/07 02:41:49;;;;;;;15.43;8.40;;;;;;;-0.34;67.63;100094.75;5027557;27;98495;-82
2024/01/07 02:44:15;;;;;;;19.07;9.00;;;;;;;-0.19;67.89;100106.03;5016297;27;101119;-83
2024/01/07 02:46:41;;;;;;;18.33;9.53;;;;;;;-0.36;68.04;100080.97;5029841;27;97234;-83
2024/01/07 02:49:07;;;;;;;18.83;9.13;;;;;;;-0.25;67.45;100078.47;5031330;27;97778;-82
2024/01/07 02:51:32;;;;;;;15.80;8.47;;;;;;;0.06;66.88;100101.84;4996622;27;101307;-82
2024/01/07 02:53:58;;;;;;;13.93;8.00;;;;;;;0.04;66.83;100114.75;5029831;27;98146;-83
2024/01/07 02:56:23;;;;;;;17.47;9.00;;;;;;;0.17;66.41;100111.38;5006346;28;96740;-83
2024/01/07 02:58:49;;;;;;;17.57;8.30;;;;;;;0.07;66.80;100114.78;5026504;27;97283;-82
2024/01/07 03:01:14;;;;;;;15.07;8.07;;;;;;;0.03;67.07;100113.03;4995505;28;100557;-83
2024/01/07 03:03:40;;;;;;;16.43;8.80;;;;;;;0.09;66.58;100125.97;5012706;28;97466;-83
2024/01/07 03:06:05;;;;;;;14.60;8.37;;;;;;;0.21;66.82;100117.44;5027440;27;97956;-83
2024/01/07 03:08:31;;;;;;;15.57;8.57;;;;;;;-0.26;67.18;100124.06;5020313;27;96914;-83
2024/01/07 03:10:56;;;;;;;15.00;8.83;;;;;;;-0.25;67.18;100112.88;4988585;28;101734;-83
2024/01/07 03:13:22;;;;;;;16.60;8.60;;;;;;;-0.14;66.71;100122.41;5012474;28;100826;-83
2024/01/07 03:15:47;;;;;;;15.57;8.47;;;;;;;0.14;66.93;100121.69;5012531;28;97164;-83
2024/01/07 03:18:13;;;;;;;16.17;8.57;;;;;;;-0.10;66.18;100101.78;5025948;27;97127;-83
2024/01/07 03:20:38;;;;;;;17.33;8.37;;;;;;;-0.22;66.50;100118.91;5025062;27;97351;-83
2024/01/07 03:23:04;;;;;;;20.27;9.47;;;;;;;-0.38;66.99;100117.91;5008420;28;101589;-82
2024/01/07 03:25:29;;;;;;;15.73;8.47;;;;;;;-0.20;66.79;100120.66;5013282;27;96740;-83
2024/01/07 03:27:55;;;;;;;15.63;8.77;;;;;;;-0.36;66.74;100116.22;5011778;28;96813;-83
2024/01/07 03:30:20;;;;;;;13.53;8.47;;;;;;;-0.39;67.17;100109.31;5010912;27;100809;-82
2024/01/07 03:32:46;;;;;;;18.00;9.33;;;;;;;-0.18;66.81;100125.81;5027585;27;98114;-83
2024/01/07 03:35:11;;;;;;;16.90;8.87;;;;;;;-0.34;66.87;100133.44;5012437;28;97273;-83
2024/01/07 03:37:37;;;;;;;13.83;8.00;;;;;;;-0.24;67.01;100124.03;5007082;28;97026;-84
2024/01/07 03:40:03;;;;;;;13.97;8.87;;;;;;;-0.07;66.53;100132.75;5026719;28;98119;-83
2024/01/07 03:42:28;;;;;;;13.80;7.87;;;;;;;-0.15;67.00;100138.72;5012727;28;97828;-82
2024/01/07 03:44:54;;;;;;;15.87;8.93;;;;;;;-0.20;66.79;100109.44;5012665;28;96848;-83
2024/01/07 03:47:19;;;;;;;13.93;8.30;;;;;;;-0.07;66.58;100137.06;5023776;27;96804;-83
2024/01/07 03:49:45;;;;;;;15.80;8.37;;;;;;;0.05;66.28;100146.59;5015830;28;97390;-83
2024/01/07 03:52:10;;;;;;;14.27;8.47;;;;;;;-0.22;66.13;100103.44;4998988;28;101183;-83
2024/01/07 03:54:35;;;;;;;18.13;8.43;;;;;;;0.20;65.42;100147.56;5027045;28;96958;-83
2024/01/07 03:57:01;;;;;;;15.80;8.03;;;;;;;-0.09;65.49;100116.41;5028573;28;97400;-83
2024/01/07 03:59:27;;;;;;;14.83;7.83;;;;;;;0.10;64.09;100132.84;5010486;28;101076;-83
2024/01/07 04:01:56;;;;;;;14.23;8.03;;;;;;;0.13;63.47;100122.56;5011065;27;101372;-83
2024/01/07 04:04:22;;;;;;;14.93;8.10;;;;;;;0.15;63.05;100154.41;5025417;28;96778;-83
2024/01/07 04:06:47;;;;;;;14.90;7.73;;;;;;;0.12;63.83;100146.66;5032110;28;96764;-83
2024/01/07 04:09:13;;;;;;;12.83;6.97;;;;;;;0.05;62.51;100149.19;5030091;28;97670;-83
2024/01/07 04:11:42;;;;;;;14.53;7.73;;;;;;;0.02;62.59;100138.84;5014793;28;100339;-83
2024/01/07 04:14:08;;;;;;;15.17;8.30;;;;;;;0.31;62.54;100159.66;5011064;28;96955;-83
2024/01/07 04:16:34;;;;;;;14.00;7.33;;;;;;;0.10;61.88;100140.59;5014929;28;96767;-82
2024/01/07 04:19:00;;;;;;;11.27;7.00;;;;;;;0.11;61.42;100162.97;5011252;28;101548;-83
2024/01/07 04:21:25;;;;;;;11.47;6.77;;;;;;;-0.20;61.96;100125.81;5013390;27;98442;-82
2024/01/07 04:23:51;;;;;;;11.63;6.80;;;;;;;-0.16;61.34;100140.44;5033370;27;96970;-83
2024/01/07 04:26:16;;;;;;;14.30;6.97;;;;;;;-0.10;61.04;100155.09;4999407;28;97306;-84
2024/01/07 04:28:42;;;;;;;12.67;6.83;;;;;;;-0.40;60.54;100148.03;5006985;28;101811;-83
2024/01/07 04:31:08;;;;;;;13.70;6.87;;;;;;;-0.47;60.14;100167.72;5002901;28;101388;-83
2024/01/07 04:33:33;;;;;;;15.57;7.47;;;;;;;-0.28;60.95;100166.16;5007055;28;97186;-83
2024/01/07 04:36:00;;;;;;;12.87;6.80;;;;;;;-0.39;61.09;100162.63;5006375;27;96796;-82
2024/01/07 04:38:26;;;;;;;12.83;6.93;;;;;;;-0.41;60.95;100175.50;5025143;28;97391;-82
2024/01/07 04:40:52;;;;;;;12.67;6.87;;;;;;;-0.49;60.56;100172.88;5028518;27;97592;-83
2024/01/07 04:43:18;;;;;;;10.87;6.63;;;;;;;-0.56;60.64;100147.03;4996083;28;96765;-82
2024/01/07 04:45:44;;;;;;;12.50;7.30;;;;;;;-0.66;60.33;100176.16;5032088;27;96854;-83
2024/01/07 04:48:09;;;;;;;11.90;6.03;;;;;;;-0.73;61.21;100182.97;5008958;28;101351;-82
2024/01/07 04:50:35;;;;;;;12.80;6.23;;;;;;;-0.78;61.19;100194.97;5024883;28;97892;-83
2024/01/07 04:53:00;;;;;;;10.63;5.73;;;;;;;-0.97;61.28;100178.44;4989783;28;97125;-82
2024/01/07 04:55:26;;;;;;;10.17;6.23;;;;;;;-0.85;61.13;100195.72;4996797;28;96905;-83
2024/01/07 04:57:51;;;;;;;11.20;6.40;;;;;;;-0.75;61.22;100203.59;5016512;27;97716;-83
2024/01/07 05:00:17;;;;;;;10.73;5.50;;;;;;;-0.82;61.23;100180.28;4980188;28;101041;-83
2024/01/07 05:02:42;;;;;;;9.13;5.57;;;;;;;-0.80;61.27;100209.53;5008885;28;97474;-83
2024/01/07 05:05:09;;;;;;;13.10;6.20;;;;;;;-0.87;61.10;100195.72;4966844;28;97152;-83
2024/01/07 05:07:34;;;;;;;11.27;6.93;;;;;;;-0.82;61.16;100206.06;5020015;28;97899;-83
2024/01/07 05:10:00;;;;;;;8.63;5.80;;;;;;;-0.95;60.54;100184.47;5008693;28;101668;-83
2024/01/07 05:12:25;;;;;;;11.87;5.60;;;;;;;-0.86;61.09;100194.00;5022356;28;96858;-83
2024/01/07 05:14:51;;;;;;;12.30;6.10;;;;;;;-0.71;60.49;100212.19;5007144;28;96781;-84
2024/01/07 05:17:17;;;;;;;9.00;5.20;;;;;;;-0.95;60.88;100197.34;5012182;28;101444;-84
2024/01/07 05:19:43;;;;;;;9.13;6.00;;;;;;;-0.96;60.31;100218.81;5010690;28;97594;-83
2024/01/07 05:22:08;;;;;;;10.77;6.23;;;;;;;-0.94;61.09;100215.41;4994463;28;97924;-83
2024/01/07 05:24:37;;;;;;;10.20;5.87;;;;;;;-0.89;60.55;100188.81;4994614;28;97222;-83
2024/01/07 05:27:02;;;;;;;10.33;5.80;;;;;;;-0.51;60.08;100225.28;5024982;28;98555;-84
2024/01/07 05:29:28;;;;;;;9.33;5.23;;;;;;;-0.61;60.41;100215.72;5010266;27;101047;-83
2024/01/07 05:31:53;;;;;;;9.23;5.13;;;;;;;-0.65;59.73;100243.19;4999050;28;96986;-83
2024/01/07 05:34:19;;;;;;;10.20;5.40;;;;;;;-0.79;60.41;100217.28;5015594;27;96744;-83
2024/01/07 05:36:44;;;;;;;10.37;6.40;;;;;;;-0.64;60.24;100226.91;5024239;28;100176;-83
2024/01/07 05:39:10;;;;;;;10.10;5.30;;;;;;;-0.74;59.97;100214.75;5022425;27;101075;-83
2024/01/07 05:41:37;;;;;;;8.87;6.13;;;;;;;-0.62;60.22;100219.16;5019134;28;97911;-82
2024/01/07 05:44:03;;;;;;;12.60;5.70;;;;;;;-0.30;60.29;100233.22;4993265;28;96847;-83
2024/01/07 05:46:28;;;;;;;9.83;5.93;;;;;;;-0.50;59.08;100234.75;4976842;28;101090;-82
2024/01/07 05:48:54;;;;;;;8.87;5.40;;;;;;;-0.64;59.93;100218.28;5006266;28;101166;-82
2024/01/07 05:51:19;;;;;;;11.97;5.93;;;;;;;-0.78;59.21;100231.03;4995224;28;96754;-82
2024/01/07 05:53:46;;;;;;;9.93;5.33;;;;;;;-0.87;60.41;100246.38;5008449;27;97394;-83
2024/01/07 05:56:12;;;;;;;10.37;5.57;;;;;;;-0.91;59.88;100219.72;5013413;27;99491;-82
2024/01/07 05:58:38;;;;;;;8.47;4.77;;;;;;;-0.97;60.41;100248.00;5010952;27;97782;-83
2024/01/07 06:01:04;;;;;;;9.03;5.50;;;;;;;-0.99;59.92;100241.97;5016456;27;96801;-82
2024/01/07 06:03:29;;;;;;;8.93;5.60;;;;;;;-1.24;59.47;100230.50;4972425;28;96852;-82
2024/01/07 06:05:55;;;;;;;9.33;5.47;;;;;;;-1.10;60.25;100243.56;5018248;28;101200;-82
2024/01/07 06:08:20;;;;;;;6.23;4.00;;;;;;;-1.00;60.27;100253.13;4973980;28;100075;-82
2024/01/07 06:10:46;;;;;;;8.27;4.97;;;;;;;-1.02;60.37;100240.25;5003183;28;97037;-82
2024/01/07 06:13:12;;;;;;;10.63;4.90;;;;;;;-0.95;60.13;100249.75;4990499;28;97166;-81
2024/01/07 06:15:37;;;;;;;7.00;4.70;;;;;;;-0.93;60.09;100254.94;5010222;28;98156;-82
2024/01/07 06:18:03;;;;;;;7.30;4.73;;;;;;;-1.17;60.13;100234.88;4993325;28;101474;-83
2024/01/07 06:20:28;;;;;;;10.60;5.30;;;;;;;-0.83;60.09;100261.91;4971455;28;96770;-83
2024/01/07 06:22:54;;;;;;;11.17;5.40;;;;;;;-0.83;59.60;100266.22;5006765;27;96847;-82
2024/01/07 06:25:20;;;;;;;10.57;5.23;;;;;;;-0.70;59.59;100275.78;5004413;28;101674;-82
2024/01/07 06:27:46;;;;;;;7.30;4.37;;;;;;;-0.71;59.10;100269.78;5000201;27;101826;-82
2024/01/07 06:30:12;;;;;;;8.13;4.97;;;;;;;-0.82;58.94;100268.78;5026875;27;96778;-82
2024/01/07 06:32:37;;;;;;;7.53;4.40;;;;;;;-0.98;58.88;100277.22;4994494;28;96821;-83
2024/01/07 06:35:04;;;;;;;7.03;4.20;;;;;;;-0.91;58.89;100274.72;5026838;27;98291;-83
2024/01/07 06:37:30;;;;;;;7.50;3.80;;;;;;;-0.71;58.34;100271.50;4974415;28;101497;-83
2024/01/07 06:39:56;;;;;;;7.50;4.33;;;;;;;-0.94;58.56;100256.63;5000513;28;97335;-82
2024/01/07 06:42:22;;;;;;;7.07;3.87;;;;;;;-0.80;58.43;100279.13;4990749;28;97124;-82
2024/01/07 06:44:47;;;;;;;6.13;3.97;;;;;;;-0.88;58.52;100281.59;5020147;28;97637;-83
2024/01/07 06:47:13;;;;;;;6.17;4.17;;;;;;;-0.78;57.86;100292.91;5009929;28;97864;-82
2024/01/07 06:49:40;;;;;;;7.93;3.90;;;;;;;-0.99;57.96;100286.66;4992594;28;96919;-82
2024/01/07 06:52:05;;;;;;;6.83;4.67;;;;;;;-1.16;58.29;100286.44;5018278;27;96866;-83
2024/01/07 06:54:31;;;;;;;6.93;4.47;;;;;;;-1.07;58.88;100300.28;5024244;28;101360;-82
2024/01/07 06:56:56;;;;;;;8.73;4.33;;;;;;;-1.02;58.86;100308.91;4997855;28;101260;-82
2024/01/07 06:59:22;;;;;;;7.57;4.40;;;;;;;-0.85;58.82;100311.72;5007451;28;96803;-83
2024/01/07 07:01:47;;;;;;;8.07;4.27;;;;;;;-0.70;58.70;100310.19;5016521;28;97114;-83
2024/01/07 07:04:13;;;;;;;7.77;3.73;;;;;;;-0.64;58.16;100314.56;5020749;28;97573;-83
2024/01/07 07:06:38;;;;;;;6.93;4.07;;;;;;;-0.79;58.33;100315.22;4996019;28;101315;-83
2024/01/07 07:09:04;;;;;;;5.77;3.50;;;;;;;-0.91;57.93;100279.00;5012400;28;96711;-83
2024/01/07 07:11:29;;;;;;;5.83;3.83;;;;;;;-0.69;57.62;100326.53;5029448;28;96752;-82
2024/01/07 07:13:55;;;;;;;6.03;3.40;;;;;;;-0.93;56.41;100321.94;5026648;28;98117;-82
2024/01/07 07:16:20;;;;;;;5.20;2.97;;;;;;;-1.00;56.31;100326.13;5009459;28;97380;-82
2024/01/07 07:18:46;;;;;;;7.70;3.33;;;;;;;-1.14;56.18;100314.78;4994143;28;96793;-83
2024/01/07 07:21:11;;;;;;;6.47;3.57;;;;;;;-1.10;56.69;100313.13;5013149;28;97791;-83
2024/01/07 07:23:37;;;;;;;5.67;2.97;;;;;;;-0.95;56.98;100323.63;5016345;28;98370;-83
2024/01/07 07:26:02;;;;;;;6.87;3.60;;;;;;;-0.84;57.26;100334.94;5004957;28;97634;-83
2024/01/07 07:28:28;;;;;;;4.87;2.87;;;;;;;-0.85;56.44;100335.78;5005617;28;97412;-84
2024/01/07 07:30:53;;;;;;;8.70;4.37;;;;;;;-0.54;56.27;100331.00;5012482;28;96870;-84
2024/01/07 07:33:19;;;;;;;8.27;3.50;;;;;;;-0.63;56.13;100310.25;5011978;28;98502;-84
2024/01/07 07:35:44;;;;;;;7.07;3.10;;;;;;;-0.36;55.96;100332.91;5016961;28;97169;-83
2024/01/07 07:38:10;;;;;;;6.30;3.43;;;;;;;-0.51;56.00;100337.03;5010799;28;96861;-83
2024/01/07 07:40:35;;;;;;;6.37;3.67;;;;;;;-0.56;55.91;100314.63;5013652;28;96928;-84
2024/01/07 07:43:01;;;;;;;7.13;3.37;;;;;;;-0.27;55.51;100336.44;5014720;28;98007;-83
2024/01/07 07:45:26;;;;;;;6.97;3.33;;;;;;;-0.21;55.99;100342.50;4995276;28;100968;-84
2024/01/07 07:47:52;;;;;;;5.73;3.60;;;;;;;-0.54;55.90;100333.56;5009319;28;97432;-83
2024/01/07 07:50:17;;;;;;;6.13;3.20;;;;;;;-0.56;55.54;100343.00;5009043;28;96925;-83
2024/01/07 07:52:43;;;;;;;5.17;3.03;;;;;;;-0.58;55.79;100339.53;5010593;27;101327;-84
2024/01/07 07:55:10;;;;;;;8.47;3.70;;;;;;;-0.62;55.37;100345.50;5027805;28;101183;-83
2024/01/07 07:57:35;;;;;;;5.47;3.53;;;;;;;-0.97;55.72;100339.06;5010441;27;97270;-83
2024/01/07 08:00:01;;;;;;;6.43;3.43;;;;;;;-0.67;55.54;100368.63;4999139;28;96786;-83
2024/01/07 08:02:27;;;;;;;4.60;2.90;;;;;;;-0.73;55.65;100358.25;5030640;27;98880;-83
2024/01/07 08:04:53;;;;;;;6.43;3.93;;;;;;;-0.53;55.91;100364.50;4997343;27;102041;-83
2024/01/07 08:07:18;;;;;;;7.50;3.23;;;;;;;-0.27;55.73;100376.84;5013992;27;96993;-83
2024/01/07 08:09:44;;;;;;;5.37;2.70;;;;;;;-0.55;54.93;100343.03;5045477;27;97514;-83
2024/01/07 08:12:11;;;;;;;6.83;3.27;;;;;;;-0.38;55.01;100376.72;5013946;27;101413;-83
2024/01/07 08:14:40;;;;;;;5.33;2.90;;;;;;;-0.55;54.67;100373.09;5001864;27;101620;-83
2024/01/07 08:17:07;;;;;;;3.83;2.80;;;;;;;-0.69;55.05;100378.09;5052135;27;96772;-82
2024/01/07 08:19:32;;;;;;;6.33;3.73;;;;;;;-0.82;54.49;100378.75;5035320;27;96784;-84
2024/01/07 08:21:58;;;;;;;8.60;2.87;;;;;;;-0.56;54.82;100377.38;5035398;27;101618;-83
2024/01/07 08:24:23;;;;;;;5.60;3.10;;;;;;;-0.59;54.53;100350.69;5015117;28;101374;-83
2024/01/07 08:26:49;;;;;;;5.30;2.80;;;;;;;-0.44;54.68;100378.38;5030265;27;96821;-83
2024/01/07 08:29:14;;;;;;;4.70;2.63;;;;;;;-0.59;54.33;100381.63;5033095;27;96798;-83
2024/01/07 08:31:42;;;;;;;4.57;3.10;;;;;;;-0.63;54.58;100364.41;5014882;27;97443;-82
2024/01/07 08:34:07;;;;;;;5.30;3.03;;;;;;;-0.33;54.48;100381.94;5019873;28;101425;-83
2024/01/07 08:36:33;;;;;;;4.60;2.87;;;;;;;-0.56;54.41;100397.16;5012311;27;96813;-83
2024/01/07 08:38:58;;;;;;;6.20;3.10;;;;;;;-0.52;54.31;100393.78;5014524;27;96941;-83
2024/01/07 08:41:24;;;;;;;5.27;2.97;;;;;;;-0.57;54.27;100393.72;5017301;27;96847;-83
2024/01/07 08:43:49;;;;;;;4.53;2.77;;;;;;;-0.38;55.01;100399.94;5018709;27;101039;-83
2024/01/07 08:46:15;;;;;;;5.87;3.40;;;;;;;-0.20;54.04;100403.56;5014732;27;96848;-82
2024/01/07 08:48:41;;;;;;;5.37;3.20;;;;;;;-0.18;53.39;100394.16;5003016;27;97020;-82
2024/01/07 08:51:06;;;;;;;6.40;2.57;;;;;;;-0.01;53.30;100397.78;5007264;27;98941;-81
2024/01/07 08:53:32;;;;;;;5.47;3.40;;;;;;;-0.32;53.71;100399.16;5003304;28;101507;-83
2024/01/07 08:55:58;;;;;;;6.07;3.70;;;;;;;0.02;53.56;100405.53;5000168;27;96765;-83
2024/01/07 08:58:24;;;;;;;7.70;4.57;;;;;;;-0.11;53.43;100386.50;4994534;28;97050;-83
2024/01/07 09:00:49;;;;;;;6.17;3.30;;;;;;;-0.01;53.38;100400.34;5007801;27;99641;-83
2024/01/07 09:03:15;;;;;;;6.40;3.63;;;;;;;-0.28;53.11;100409.53;5032943;27;97373;-83
2024/01/07 09:05:40;;;;;;;5.23;3.30;;;;;;;-0.18;54.45;100410.50;4997503;27;97142;-83
2024/01/07 09:08:06;;;;;;;6.90;3.23;;;;;;;-0.14;54.70;100385.59;5021050;27;96947;-84
2024/01/07 09:10:33;;;;;;;5.43;2.90;;;;;;;-0.02;53.69;100383.13;5005688;27;101416;-84
2024/01/07 09:12:59;;;;;;;6.37;3.40;;;;;;;0.47;54.37;100412.00;5033876;27;97693;-84
2024/01/07 09:15:25;;;;;;;4.83;2.60;;;;;;;0.30;53.44;100411.00;5037365;27;96727;-83
2024/01/07 09:17:50;;;;;;;6.80;3.73;;;;;;;0.71;52.38;100415.63;4998955;27;96922;-83
2024/01/07 09:20:16;;;;;;;6.20;3.63;;;;;;;0.42;52.38;100414.53;5015393;27;97775;-83
2024/01/07 09:22:43;;;;;;;5.37;2.97;;;;;;;0.52;53.09;100407.72;5051519;27;98155;-83
2024/01/07 09:25:09;;;;;;;5.17;3.20;;;;;;;0.52;52.62;100404.28;5003376;27;96981;-83
2024/01/07 09:27:34;;;;;;;5.30;3.47;;;;;;;0.63;53.07;100426.75;5005663;27;96896;-84
2024/01/07 09:30:01;;;;;;;7.30;3.10;;;;;;;0.41;52.50;100430.03;5014647;27;97451;-83
2024/01/07 09:32:26;;;;;;;8.70;3.60;;;;;;;0.19;52.70;100414.31;5019066;27;98192;-84
2024/01/07 09:34:51;;;;;;;6.23;4.00;;;;;;;0.04;52.99;100395.25;5026783;27;97288;-84
2024/01/07 09:37:17;;;;;;;7.33;4.23;;;;;;;0.05;53.10;100410.72;5018287;27;96898;-83
2024/01/07 09:39:44;;;;;;;7.90;3.87;;;;;;;0.27;52.53;100432.47;5018905;27;97307;-83
2024/01/07 09:42:19;;;;;;;8.17;4.10;;;;;;;0.30;53.01;100414.44;5006140;27;101039;-84
2024/01/07 09:44:44;;;;;;;5.77;3.60;;;;;;;0.32;52.20;100393.75;5012260;27;97503;-85
2024/01/07 09:47:12;;;;;;;6.57;3.40;;;;;;;0.13;52.18;100431.47;5047798;27;98183;-83
2024/01/07 09:49:38;;;;;;;8.40;4.30;;;;;;;0.19;52.84;100414.31;5009314;27;100715;-84
2024/01/07 09:52:04;;;;;;;7.47;3.90;;;;;;;0.10;53.08;100379.81;5022276;27;97745;-82
2024/01/07 09:54:30;;;;;;;6.77;3.63;;;;;;;0.66;53.46;100416.44;5021364;27;96929;-82
2024/01/07 09:57:03;;;;;;;7.87;4.10;;;;;;;0.37;52.54;100420.50;4996801;28;97431;-83
2024/01/07 09:59:29;;;;;;;8.33;4.47;;;;;;;0.02;53.65;100405.53;5018573;28;97655;-84
2024/01/07 10:01:55;;;;;;;6.07;3.17;;;;;;;-0.02;53.12;100389.16;5005356;28;97379;-87
2024/01/07 10:04:21;;;;;;;8.40;4.03;;;;;;;0.13;53.12;100414.25;5020500;28;96815;-84
2024/01/07 10:06:48;;;;;;;7.00;3.83;;;;;;;0.27;52.36;100411.81;5008279;28;97480;-90
2024/01/07 10:09:15;;;;;;;6.60;3.77;;;;;;;0.54;52.64;100408.59;4988391;28;102012;-84
2024/01/07 10:11:40;;;;;;;9.13;5.33;;;;;;;0.38;52.94;100410.19;4993273;27;100929;-83
2024/01/07 10:14:06;;;;;;;8.53;4.93;;;;;;;0.56;53.41;100401.75;5025948;28;96728;-83
2024/01/07 10:16:32;;;;;;;8.67;4.97;;;;;;;0.40;52.87;100397.28;5026168;28;97391;-82
2024/01/07 10:18:58;;;;;;;7.13;4.53;;;;;;;0.34;53.24;100397.22;5025365;28;97576;-83
2024/01/07 10:21:24;;;;;;;9.03;4.40;;;;;;;0.52;52.84;100402.53;5012261;28;101145;-83
2024/01/07 10:23:50;;;;;;;7.80;4.00;;;;;;;0.40;52.84;100405.03;5029233;28;96793;-82
2024/01/07 10:26:16;;;;;;;7.87;4.30;;;;;;;0.50;52.39;100393.09;5028639;28;97005;-84
2024/01/07 10:28:43;;;;;;;8.13;4.30;;;;;;;0.32;52.04;100392.06;5032589;27;98023;-84
2024/01/07 10:31:09;;;;;;;7.37;4.20;;;;;;;0.42;52.25;100405.91;4993538;28;99819;-84
2024/01/07 10:33:34;;;;;;;8.07;4.27;;;;;;;0.37;51.75;100399.84;5024517;28;96800;-84
2024/01/07 10:36:06;;;;;;;9.07;4.43;;;;;;;0.66;52.33;100408.69;5011400;28;97257;-83
2024/01/07 10:38:33;;;;;;;7.40;4.25;;;;;;;0.71;51.62;100419.06;5012212;28;98466;-82
2024/01/07 10:40:59;;;;;;;7.43;3.53;;;;;;;0.61;51.19;100425.00;5013903;28;97881;-85
2024/01/07 10:43:26;;;;;;;11.57;4.73;;;;;;;0.57;50.64;100406.03;5021514;28;96756;-88
2024/01/07 10:45:54;;;;;;;8.87;4.10;;;;;;;0.63;51.15;100416.41;5029029;28;96850;-87
2024/01/07 10:48:20;;;;;;;7.63;4.70;;;;;;;0.12;50.72;100412.53;5025322;28;98507;-87
2024/01/07 10:50:46;;;;;;;7.10;4.00;;;;;;;-0.21;50.74;100404.44;5027566;28;101304;-88
2024/01/07 10:53:18;;;;;;;8.27;4.00;;;;;;;-0.07;51.34;100429.53;5007751;28;96885;-87
2024/01/07 10:55:52;;;;;;;9.90;3.70;;;;;;;-0.17;51.12;100425.13;4982540;28;96943;-87
2024/01/07 10:58:19;;;;;;;7.07;3.57;;;;;;;-0.53;51.25;100404.91;4999584;28;100256;-88
2024/01/07 11:00:46;;;;;;;6.60;3.90;;;;;;;-0.68;51.57;100406.47;5009095;28;101448;-88
2024/01/07 11:03:18;;;;;;;7.77;4.87;;;;;;;-0.39;51.71;100416.28;4991176;28;96889;-88
2024/01/07 11:05:50;;;;;;;12.63;4.72;;;;;;;-0.17;52.87;100424.28;4993317;28;96901;-87
2024/01/07 11:08:36;;;;;;;10.97;5.10;;;;;;;0.09;52.28;100425.41;5014688;28;101202;-88
2024/01/07 11:11:23;;;;;;;10.77;5.27;;;;;;;0.06;51.70;100422.81;5024565;28;100665;-87
2024/01/07 11:13:49;;;;;;;12.37;6.17;;;;;;;0.07;51.21;100421.94;5027516;28;96743;-87
2024/01/07 11:16:41;;;;;;;10.67;4.60;;;;;;;-0.27;51.53;100423.28;5021051;27;96913;-87